Time;durP1;ratioP1;P1;durP2;ratioP2;P2;SDS_P1;SDS_P2;PMS_P1;PMS_P2;Temp;Humidity;BMP_temperature;BMP_pressure;BME280_temperature;BME280_humidity;BME280_pressure;Samples;Min_cycle;Max_cycle;Signal;HPM_P1;HPM_P2
2022/10/21 00:01:41;;;;;;;;;;;23.10;58.00;;;;;;1549900;75;677;-57
2022/10/21 00:03:43;;;;;;;;;;;23.10;58.00;;;;;;1550541;75;738;-56
2022/10/21 00:05:45;;;;;;;;;;;23.10;58.00;;;;;;1538655;75;1176;-56
2022/10/21 00:07:47;;;;;;;;;;;23.10;58.10;;;;;;1549798;75;1929;-56
2022/10/21 00:09:49;;;;;;;;;;;23.10;58.10;;;;;;1550315;76;805;-56
2022/10/21 00:11:51;;;;;;;;;;;23.20;58.10;;;;;;1536549;75;1498;-57
2022/10/21 00:13:53;;;;;;;;;;;23.20;58.20;;;;;;1564812;75;701;-57
2022/10/21 00:16:01;;;;;;;;;;;23.10;58.10;;;;;;1549427;75;1141;-57
2022/10/21 00:18:03;;;;;;;;;;;23.10;58.20;;;;;;1543904;75;734;-57
2022/10/21 00:20:06;;;;;;;;;;;23.10;58.20;;;;;;1555896;75;709;-57
2022/10/21 00:22:07;;;;;;;;;;;23.20;58.30;;;;;;1545742;75;780;-57
2022/10/21 00:24:09;;;;;;;;;;;23.20;58.30;;;;;;1554535;75;676;-56
2022/10/21 00:26:12;;;;;;;;;;;23.20;58.00;;;;;;1543581;75;1685;-57
2022/10/21 00:28:13;;;;;;;;;;;23.30;58.10;;;;;;1549125;75;1942;-56
2022/10/21 00:30:15;;;;;;;;;;;23.30;57.90;;;;;;1559111;75;745;-57
2022/10/21 00:32:17;;;;;;;;;;;23.30;57.80;;;;;;1568033;75;839;-56
2022/10/21 00:34:19;;;;;;;;;;;23.20;57.80;;;;;;1544530;75;788;-56
2022/10/21 00:36:21;;;;;;;;;;;23.30;57.80;;;;;;1552493;75;1169;-57
2022/10/21 00:38:23;;;;;;;;;;;23.30;57.80;;;;;;1549292;75;757;-57
2022/10/21 00:40:25;;;;;;;;;;;23.20;57.80;;;;;;1548924;75;1529;-56
2022/10/21 00:42:29;;;;;;;;;;;23.30;58.00;;;;;;1553870;75;789;-56
2022/10/21 00:44:30;;;;;;;;;;;23.30;58.00;;;;;;1547349;74;1754;-56
2022/10/21 00:46:43;;;;;;;;;;;23.30;58.00;;;;;;1549111;75;1201;-56
2022/10/21 00:48:47;;;;;;;;;;;23.30;58.10;;;;;;1554681;75;1939;-56
2022/10/21 00:50:53;;;;;;;;;;;23.20;58.00;;;;;;1559741;75;706;-57
2022/10/21 00:52:55;;;;;;;;;;;23.30;58.20;;;;;;1552752;75;1791;-56
2022/10/21 00:54:57;;;;;;;;;;;23.30;58.30;;;;;;1543027;75;680;-57
2022/10/21 00:56:59;;;;;;;;;;;23.20;58.30;;;;;;1545387;75;1134;-56
2022/10/21 00:59:01;;;;;;;;;;;23.20;58.20;;;;;;1548574;75;721;-56
2022/10/21 01:01:03;;;;;;;;;;;23.20;58.30;;;;;;1538610;75;730;-57
2022/10/21 01:03:05;;;;;;;;;;;23.30;58.40;;;;;;1551176;76;703;-56
2022/10/21 01:05:07;;;;;;;;;;;23.20;58.30;;;;;;1543874;76;749;-56
2022/10/21 01:07:09;;;;;;;;;;;23.20;58.30;;;;;;1537667;75;1538;-57
2022/10/21 01:09:11;;;;;;;;;;;23.20;58.40;;;;;;1549026;75;1937;-56
2022/10/21 01:11:13;;;;;;;;;;;23.20;58.50;;;;;;1549342;75;721;-57
2022/10/21 01:13:17;;;;;;;;;;;23.20;58.40;;;;;;1544820;75;674;-57
2022/10/21 01:15:26;;;;;;;;;;;23.20;58.40;;;;;;1545734;75;1867;-56
2022/10/21 01:17:39;;;;;;;;;;;23.20;58.50;;;;;;1545298;75;682;-57
2022/10/21 01:19:49;;;;;;;;;;;23.20;58.50;;;;;;1554391;75;750;-56
2022/10/21 01:21:55;;;;;;;;;;;23.30;58.30;;;;;;1546243;75;1955;-56
2022/10/21 01:24:05;;;;;;;;;;;23.30;58.10;;;;;;1545808;75;1966;-56
2022/10/21 01:26:17;;;;;;;;;;;23.30;58.10;;;;;;1540940;75;1877;-56
2022/10/21 01:28:39;;;;;;;;;;;23.40;57.90;;;;;;1546286;75;1940;-57
2022/10/21 01:30:53;;;;;;;;;;;23.40;57.80;;;;;;1548771;75;1713;-57
2022/10/21 01:32:56;;;;;;;;;;;23.40;57.80;;;;;;1537011;75;739;-56
2022/10/21 01:35:12;;;;;;;;;;;23.30;57.80;;;;;;1549830;75;680;-56
2022/10/21 01:37:15;;;;;;;;;;;23.40;57.90;;;;;;1552180;75;769;-57
2022/10/21 01:39:18;;;;;;;;;;;23.40;57.90;;;;;;1548866;75;734;-57
2022/10/21 01:41:24;;;;;;;;;;;23.40;57.80;;;;;;1540691;76;691;-57
2022/10/21 01:43:40;;;;;;;;;;;23.50;57.70;;;;;;1547805;75;772;-57
2022/10/21 01:45:44;;;;;;;;;;;23.50;57.60;;;;;;1552254;75;1548;-57
2022/10/21 01:47:55;;;;;;;;;;;23.50;57.50;;;;;;1529768;76;1041;-57
2022/10/21 01:49:59;;;;;;;;;;;23.60;57.40;;;;;;1531669;76;1599;-57
2022/10/21 01:52:01;;;;;;;;;;;23.60;57.50;;;;;;1529927;76;914;-52
2022/10/21 01:54:10;;;;;;;;;;;23.50;57.50;;;;;;1532004;76;730;-57
2022/10/21 01:56:12;;;;;;;;;;;23.50;57.50;;;;;;1531983;76;1822;-56
2022/10/21 01:58:16;;;;;;;;;;;23.50;57.50;;;;;;1527437;76;708;-56
2022/10/21 02:00:18;;;;;;;;;;;23.50;57.50;;;;;;1532280;76;739;-57
2022/10/21 02:02:19;;;;;;;;;;;23.50;57.50;;;;;;1527228;76;825;-57
2022/10/21 02:04:21;;;;;;;;;;;23.50;57.60;;;;;;1534364;76;1533;-57
2022/10/21 02:06:24;;;;;;;;;;;23.50;57.60;;;;;;1542022;76;1159;-57
2022/10/21 02:08:26;;;;;;;;;;;23.50;57.70;;;;;;1531187;76;1921;-56
2022/10/21 02:10:29;;;;;;;;;;;23.50;57.70;;;;;;1534617;76;742;-56
2022/10/21 02:12:31;;;;;;;;;;;23.50;57.70;;;;;;1534099;76;789;-55
2022/10/21 02:14:37;;;;;;;;;;;23.50;57.70;;;;;;1530877;76;823;-56
2022/10/21 02:16:39;;;;;;;;;;;23.50;57.70;;;;;;1539750;76;1136;-57
2022/10/21 02:18:41;;;;;;;;;;;23.50;57.60;;;;;;1532153;76;1522;-57
2022/10/21 02:20:42;;;;;;;;;;;23.50;57.60;;;;;;1540023;76;797;-56
2022/10/21 02:22:44;;;;;;;;;;;23.50;57.60;;;;;;1534748;76;769;-56
2022/10/21 02:24:54;;;;;;;;;;;23.50;57.60;;;;;;1531428;76;720;-56
2022/10/21 02:26:56;;;;;;;;;;;23.50;57.50;;;;;;1528706;76;1830;-53
2022/10/21 02:28:58;;;;;;;;;;;23.50;57.50;;;;;;1531878;76;1933;-57
2022/10/21 02:31:07;;;;;;;;;;;23.50;57.60;;;;;;1526540;76;794;-57
2022/10/21 02:33:17;;;;;;;;;;;23.50;57.60;;;;;;1523592;76;1769;-57
2022/10/21 02:35:26;;;;;;;;;;;23.50;57.60;;;;;;1527002;76;1154;-54
2022/10/21 02:37:46;;;;;;;;;;;23.40;57.60;;;;;;1529214;76;1906;-56
2022/10/21 02:40:02;;;;;;;;;;;23.40;57.60;;;;;;1542379;76;706;-55
2022/10/21 02:42:04;;;;;;;;;;;23.40;57.70;;;;;;1527978;76;670;-56
2022/10/21 02:44:06;;;;;;;;;;;23.40;57.70;;;;;;1531777;76;789;-55
2022/10/21 02:46:08;;;;;;;;;;;23.30;57.60;;;;;;1540673;76;1609;-54
2022/10/21 02:48:10;;;;;;;;;;;23.40;57.60;;;;;;1557108;76;722;-56
2022/10/21 02:50:12;;;;;;;;;;;23.40;57.60;;;;;;1568726;74;1938;-55
2022/10/21 02:52:14;;;;;;;;;;;23.40;57.60;;;;;;1568982;74;827;-55
2022/10/21 02:54:16;;;;;;;;;;;23.30;57.60;;;;;;1563701;74;752;-53
2022/10/21 02:56:18;;;;;;;;;;;23.40;57.60;;;;;;1563889;74;1175;-56
2022/10/21 02:58:20;;;;;;;;;;;23.40;57.60;;;;;;1576174;74;748;-56
2022/10/21 03:00:22;;;;;;;;;;;23.40;57.60;;;;;;1559025;75;1513;-56
2022/10/21 03:02:24;;;;;;;;;;;23.30;57.60;;;;;;1556736;74;736;-56
2022/10/21 03:04:25;;;;;;;;;;;23.30;57.60;;;;;;1567908;74;767;-56
2022/10/21 03:06:27;;;;;;;;;;;23.30;57.60;;;;;;1557346;75;1141;-53
2022/10/21 03:08:29;;;;;;;;;;;23.40;57.70;;;;;;1565726;74;1943;-57
2022/10/21 03:10:31;;;;;;;;;;;23.30;57.80;;;;;;1572016;74;737;-56
2022/10/21 03:12:33;;;;;;;;;;;23.30;57.90;;;;;;1566429;74;829;-56
2022/10/21 03:14:35;;;;;;;;;;;23.30;57.90;;;;;;1564106;75;1588;-56
2022/10/21 03:16:37;;;;;;;;;;;23.30;58.00;;;;;;1561401;74;1203;-56
2022/10/21 03:18:38;;;;;;;;;;;23.20;57.90;;;;;;1552701;74;813;-54
2022/10/21 03:20:40;;;;;;;;;;;23.30;58.10;;;;;;1572830;74;794;-54
2022/10/21 03:22:46;;;;;;;;;;;23.30;58.10;;;;;;1568754;76;772;-56
2022/10/21 03:24:46;;;;;;;;;;;23.30;58.10;;;;;;1566992;74;1206;-56
2022/10/21 03:26:48;;;;;;;;;;;23.30;58.10;;;;;;1566640;74;1135;-57
2022/10/21 03:28:49;;;;;;;;;;;23.30;58.20;;;;;;1575706;74;1934;-56
2022/10/21 03:30:51;;;;;;;;;;;23.30;58.20;;;;;;1566416;74;674;-52
2022/10/21 03:32:53;;;;;;;;;;;23.20;58.10;;;;;;1564350;74;802;-54
2022/10/21 03:34:55;;;;;;;;;;;23.20;58.10;;;;;;1564167;74;743;-56
2022/10/21 03:36:57;;;;;;;;;;;23.20;58.10;;;;;;1562240;74;1113;-56
2022/10/21 03:38:59;;;;;;;;;;;23.30;58.20;;;;;;1567970;74;757;-57
2022/10/21 03:41:01;;;;;;;;;;;23.20;58.10;;;;;;1566777;74;738;-56
2022/10/21 03:43:03;;;;;;;;;;;23.20;58.10;;;;;;1567605;75;1532;-56
2022/10/21 03:45:05;;;;;;;;;;;23.30;58.30;;;;;;1572700;74;739;-56
2022/10/21 03:47:07;;;;;;;;;;;23.20;58.30;;;;;;1563094;75;1153;-56
2022/10/21 03:49:09;;;;;;;;;;;23.30;58.30;;;;;;1543275;76;1951;-53
2022/10/21 03:51:11;;;;;;;;;;;23.20;58.20;;;;;;1549451;75;772;-55
2022/10/21 03:53:13;;;;;;;;;;;23.20;58.20;;;;;;1545499;76;744;-54
2022/10/21 03:55:19;;;;;;;;;;;23.20;58.30;;;;;;1546437;75;1180;-57
2022/10/21 03:57:18;;;;;;;;;;;23.20;58.20;;;;;;1542657;76;1579;-56
2022/10/21 03:59:20;;;;;;;;;;;23.20;58.20;;;;;;1548096;75;734;-56
2022/10/21 04:01:22;;;;;;;;;;;23.20;58.20;;;;;;1547597;75;750;-53
2022/10/21 04:03:24;;;;;;;;;;;23.30;58.30;;;;;;1551598;75;791;-56
2022/10/21 04:05:26;;;;;;;;;;;23.30;58.20;;;;;;1548302;75;1151;-53
2022/10/21 04:07:28;;;;;;;;;;;23.30;58.20;;;;;;1545257;75;784;-57
2022/10/21 04:09:29;;;;;;;;;;;23.30;58.10;;;;;;1542486;75;1940;-55
2022/10/21 04:11:31;;;;;;;;;;;23.40;58.20;;;;;;1539904;75;1470;-56
2022/10/21 04:13:33;;;;;;;;;;;23.40;58.10;;;;;;1552116;75;801;-54
2022/10/21 04:15:35;;;;;;;;;;;23.40;58.00;;;;;;1548600;75;1165;-56
2022/10/21 04:17:37;;;;;;;;;;;23.60;57.80;;;;;;1542026;75;739;-54
2022/10/21 04:19:39;;;;;;;;;;;23.50;57.60;;;;;;1554581;75;745;-53
2022/10/21 04:21:41;;;;;;;;;;;23.60;57.50;;;;;;1554474;75;665;-57
2022/10/21 04:23:43;;;;;;;;;;;23.50;57.50;;;;;;1547197;75;790;-57
2022/10/21 04:25:45;;;;;;;;;;;23.50;57.60;;;;;;1558959;75;1735;-56
2022/10/21 04:27:47;;;;;;;;;;;23.40;57.60;;;;;;1545801;75;703;-56
2022/10/21 04:29:48;;;;;;;;;;;23.30;57.60;;;;;;1552937;75;1935;-56
2022/10/21 04:31:50;;;;;;;;;;;23.30;57.80;;;;;;1548092;75;686;-56
2022/10/21 04:33:52;;;;;;;;;;;23.30;58.00;;;;;;1543435;75;816;-54
2022/10/21 04:35:54;;;;;;;;;;;23.40;57.80;;;;;;1574710;75;1097;-57
2022/10/21 04:37:56;;;;;;;;;;;23.40;57.90;;;;;;1548411;75;1552;-57
2022/10/21 04:39:58;;;;;;;;;;;23.30;58.30;;;;;;1543884;75;699;-57
2022/10/21 04:42:00;;;;;;;;;;;23.30;58.40;;;;;;1548112;75;908;-56
2022/10/21 04:44:02;;;;;;;;;;;23.40;58.30;;;;;;1548016;75;750;-56
2022/10/21 04:46:04;;;;;;;;;;;23.50;58.10;;;;;;1560589;75;1180;-56
2022/10/21 04:48:06;;;;;;;;;;;23.50;58.20;;;;;;1559626;74;1142;-57
2022/10/21 04:50:08;;;;;;;;;;;23.50;58.40;;;;;;1564062;74;1928;-57
2022/10/21 04:52:10;;;;;;;;;;;23.50;58.60;;;;;;1561099;74;1517;-56
2022/10/21 04:54:12;;;;;;;;;;;23.50;59.10;;;;;;1556577;74;790;-53
2022/10/21 04:56:14;;;;;;;;;;;23.50;59.00;;;;;;1560149;74;1200;-53
2022/10/21 04:58:16;;;;;;;;;;;23.60;58.70;;;;;;1551245;74;743;-56
2022/10/21 05:00:18;;;;;;;;;;;23.70;58.60;;;;;;1561196;74;747;-57
2022/10/21 05:02:19;;;;;;;;;;;23.70;58.50;;;;;;1544913;74;714;-57
2022/10/21 05:04:21;;;;;;;;;;;23.70;58.60;;;;;;1557465;74;732;-56
2022/10/21 05:06:23;;;;;;;;;;;23.60;58.60;;;;;;1536038;76;1716;-56
2022/10/21 05:08:25;;;;;;;;;;;23.60;58.60;;;;;;1541919;75;701;-57
2022/10/21 05:10:29;;;;;;;;;;;23.50;59.80;;;;;;1547018;74;1957;-55
2022/10/21 05:12:31;;;;;;;;;;;23.50;60.90;;;;;;1560904;74;546;-55
2022/10/21 05:14:33;;;;;;;;;;;23.40;60.50;;;;;;1552469;75;709;-56
2022/10/21 05:16:35;;;;;;;;;;;23.40;60.80;;;;;;1560038;74;1138;-55
2022/10/21 05:18:36;;;;;;;;;;;23.50;60.70;;;;;;1569738;74;804;-57
2022/10/21 05:20:38;;;;;;;;;;;23.60;60.20;;;;;;1554867;74;1506;-54
2022/10/21 05:22:40;;;;;;;;;;;23.50;61.30;;;;;;1560089;74;651;-58
2022/10/21 05:24:42;;;;;;;;;;;23.50;60.90;;;;;;1558613;74;769;-57
2022/10/21 05:26:44;;;;;;;;;;;23.60;60.70;;;;;;1557318;74;1130;-58
2022/10/21 05:28:46;;;;;;;;;;;23.70;60.40;;;;;;1557464;74;765;-57
2022/10/21 05:30:48;;;;;;;;;;;23.70;60.40;;;;;;1555092;74;1947;-57
2022/10/21 05:32:49;;;;;;;;;;;23.70;59.80;;;;;;1560528;74;745;-58
2022/10/21 05:34:51;;;;;;;;;;;23.60;59.60;;;;;;1554532;75;1207;-56
2022/10/21 05:36:53;;;;;;;;;;;23.70;59.70;;;;;;1568408;74;1119;-59
2022/10/21 05:38:55;;;;;;;;;;;23.70;59.50;;;;;;1558356;75;737;-54
2022/10/21 05:40:57;;;;;;;;;;;23.80;59.30;;;;;;1556666;74;776;-57
2022/10/21 05:42:59;;;;;;;;;;;23.70;59.50;;;;;;1552638;74;807;-57
2022/10/21 05:45:01;;;;;;;;;;;23.80;59.30;;;;;;1546593;74;761;-55
2022/10/21 05:47:03;;;;;;;;;;;23.70;59.20;;;;;;1560367;76;1097;-57
2022/10/21 05:49:06;;;;;;;;;;;23.70;59.20;;;;;;1551706;75;1482;-57
2022/10/21 05:51:08;;;;;;;;;;;23.60;59.40;;;;;;1551162;76;1899;-57
2022/10/21 05:53:10;;;;;;;;;;;23.60;59.60;;;;;;1551339;75;742;-53
2022/10/21 05:55:12;;;;;;;;;;;23.60;59.80;;;;;;1555286;75;781;-57
2022/10/21 05:57:13;;;;;;;;;;;23.50;59.90;;;;;;1557126;75;764;-56
2022/10/21 05:59:15;;;;;;;;;;;23.50;59.90;;;;;;1545729;75;796;-56
2022/10/21 06:01:17;;;;;;;;;;;23.50;60.00;;;;;;1549963;75;824;-56
2022/10/21 06:03:21;;;;;;;;;;;23.40;59.90;;;;;;1547864;75;1571;-54
2022/10/21 06:05:23;;;;;;;;;;;23.40;60.00;;;;;;1547137;75;1780;-57
2022/10/21 06:07:25;;;;;;;;;;;23.40;60.10;;;;;;1552075;75;768;-53
2022/10/21 06:09:27;;;;;;;;;;;23.40;60.10;;;;;;1550054;76;751;-56
2022/10/21 06:11:28;;;;;;;;;;;23.40;60.10;;;;;;1545289;75;1939;-57
2022/10/21 06:13:30;;;;;;;;;;;23.30;60.00;;;;;;1546558;75;733;-56
2022/10/21 06:15:32;;;;;;;;;;;23.30;60.10;;;;;;1550257;75;1121;-56
2022/10/21 06:17:34;;;;;;;;;;;23.30;60.10;;;;;;1551741;75;1564;-53
2022/10/21 06:19:36;;;;;;;;;;;23.30;60.10;;;;;;1548326;75;745;-57
2022/10/21 06:21:38;;;;;;;;;;;23.30;60.10;;;;;;1549482;75;762;-56
2022/10/21 06:23:40;;;;;;;;;;;23.30;60.10;;;;;;1546481;75;881;-56
2022/10/21 06:25:42;;;;;;;;;;;23.30;60.10;;;;;;1557454;75;1142;-56
2022/10/21 06:27:44;;;;;;;;;;;23.30;60.00;;;;;;1547757;75;788;-57
2022/10/21 06:29:46;;;;;;;;;;;23.30;60.10;;;;;;1551119;75;1936;-56
2022/10/21 06:31:48;;;;;;;;;;;23.30;60.00;;;;;;1550990;75;1506;-56
2022/10/21 06:33:50;;;;;;;;;;;23.30;60.00;;;;;;1551581;75;736;-55
2022/10/21 06:35:52;;;;;;;;;;;23.30;60.00;;;;;;1574560;75;1136;-55
2022/10/21 06:37:53;;;;;;;;;;;23.30;60.00;;;;;;1547037;75;773;-57
2022/10/21 06:39:55;;;;;;;;;;;23.30;60.10;;;;;;1542901;75;789;-56
2022/10/21 06:41:58;;;;;;;;;;;23.30;60.00;;;;;;1543337;75;708;-56
2022/10/21 06:43:59;;;;;;;;;;;23.20;60.00;;;;;;1541201;75;1018;-57
2022/10/21 06:46:02;;;;;;;;;;;23.20;60.00;;;;;;1545658;75;1635;-57
2022/10/21 06:48:04;;;;;;;;;;;23.20;60.00;;;;;;1550757;75;1066;-57
2022/10/21 06:50:06;;;;;;;;;;;23.20;60.00;;;;;;1531193;75;1949;-57
2022/10/21 06:52:08;;;;;;;;;;;23.30;60.00;;;;;;1553810;75;741;-56
2022/10/21 06:54:10;;;;;;;;;;;23.20;59.90;;;;;;1560534;75;766;-57
2022/10/21 06:56:13;;;;;;;;;;;23.20;59.90;;;;;;1534686;75;1176;-56
2022/10/21 06:58:15;;;;;;;;;;;23.20;59.90;;;;;;1540145;75;789;-57
2022/10/21 07:00:16;;;;;;;;;;;23.20;59.80;;;;;;1549864;75;1717;-57
2022/10/21 07:02:18;;;;;;;;;;;23.20;59.80;;;;;;1551026;75;648;-57
2022/10/21 07:04:20;;;;;;;;;;;23.20;59.80;;;;;;1555044;75;798;-57
2022/10/21 07:06:22;;;;;;;;;;;23.20;59.80;;;;;;1541248;76;1265;-55
2022/10/21 07:08:24;;;;;;;;;;;23.20;59.70;;;;;;1541625;75;755;-57
2022/10/21 07:10:26;;;;;;;;;;;23.20;59.80;;;;;;1546702;75;1920;-57
2022/10/21 07:12:29;;;;;;;;;;;23.20;59.70;;;;;;1549737;75;785;-56
2022/10/21 07:14:31;;;;;;;;;;;23.20;59.70;;;;;;1528307;76;1741;-57
2022/10/21 07:16:33;;;;;;;;;;;23.20;59.70;;;;;;1548748;75;1138;-57
2022/10/21 07:18:35;;;;;;;;;;;23.30;59.80;;;;;;1559551;75;821;-55
2022/10/21 07:20:37;;;;;;;;;;;23.20;59.70;;;;;;1550304;75;825;-56
2022/10/21 07:22:39;;;;;;;;;;;23.20;59.70;;;;;;1553419;75;777;-56
2022/10/21 07:24:41;;;;;;;;;;;23.20;59.60;;;;;;1535170;75;695;-57
2022/10/21 07:26:43;;;;;;;;;;;23.30;59.60;;;;;;1551817;75;1509;-56
2022/10/21 07:28:46;;;;;;;;;;;23.20;59.60;;;;;;1548794;75;723;-56
2022/10/21 07:30:48;;;;;;;;;;;23.20;59.60;;;;;;1548861;75;1917;-53
2022/10/21 07:32:50;;;;;;;;;;;23.20;59.60;;;;;;1548808;75;809;-57
2022/10/21 07:34:52;;;;;;;;;;;23.20;59.60;;;;;;1553952;75;752;-57
2022/10/21 07:36:54;;;;;;;;;;;23.20;59.60;;;;;;1553767;75;1123;-56
2022/10/21 07:38:57;;;;;;;;;;;23.20;59.60;;;;;;1553086;75;685;-56
2022/10/21 07:40:59;;;;;;;;;;;23.20;59.50;;;;;;1557425;75;1420;-54
2022/10/21 07:43:01;;;;;;;;;;;23.10;59.50;;;;;;1543743;75;880;-56
2022/10/21 07:45:03;;;;;;;;;;;23.20;59.50;;;;;;1546766;75;786;-57
2022/10/21 07:47:05;;;;;;;;;;;23.20;59.50;;;;;;1546701;75;1124;-57
2022/10/21 07:49:07;;;;;;;;;;;23.20;59.50;;;;;;1565074;74;1123;-56
2022/10/21 07:51:10;;;;;;;;;;;23.20;59.50;;;;;;1560292;75;1947;-57
2022/10/21 07:53:12;;;;;;;;;;;23.10;59.50;;;;;;1559526;75;680;-53
2022/10/21 07:55:14;;;;;;;;;;;23.20;59.50;;;;;;1554941;76;1551;-57
2022/10/21 07:57:16;;;;;;;;;;;23.20;59.50;;;;;;1551374;75;820;-54
2022/10/21 07:59:18;;;;;;;;;;;23.20;59.40;;;;;;1550964;75;761;-55
2022/10/21 08:01:20;;;;;;;;;;;23.20;59.50;;;;;;1563576;75;709;-57
2022/10/21 08:03:22;;;;;;;;;;;23.20;59.40;;;;;;1555859;75;724;-57
2022/10/21 08:05:24;;;;;;;;;;;23.20;59.40;;;;;;1568612;75;1156;-57
2022/10/21 08:07:26;;;;;;;;;;;23.20;59.40;;;;;;1547325;75;771;-56
2022/10/21 08:09:28;;;;;;;;;;;23.20;59.30;;;;;;1555555;75;1561;-56
2022/10/21 08:11:30;;;;;;;;;;;23.20;59.40;;;;;;1551106;75;1932;-55
2022/10/21 08:13:33;;;;;;;;;;;23.20;59.30;;;;;;1552384;75;652;-56
2022/10/21 08:15:35;;;;;;;;;;;23.20;59.30;;;;;;1557918;75;1152;-57
2022/10/21 08:17:37;;;;;;;;;;;23.20;59.30;;;;;;1578868;75;675;-56
2022/10/21 08:19:39;;;;;;;;;;;23.20;59.30;;;;;;1550738;75;745;-57
2022/10/21 08:21:40;;;;;;;;;;;23.20;59.30;;;;;;1558940;75;697;-56
2022/10/21 08:23:42;;;;;;;;;;;23.20;59.30;;;;;;1524578;77;1566;-54
2022/10/21 08:25:51;;;;;;;;;;;23.20;59.30;;;;;;1502806;78;1129;-57
2022/10/21 08:27:53;;;;;;;;;;;23.20;59.30;;;;;;1508245;77;802;-53
2022/10/21 08:29:54;;;;;;;;;;;23.20;59.20;;;;;;1497213;77;762;-57
2022/10/21 08:31:56;;;;;;;;;;;23.20;59.20;;;;;;1506235;77;1933;-57
2022/10/21 08:33:58;;;;;;;;;;;23.20;59.20;;;;;;1556263;74;793;-57
2022/10/21 08:36:02;;;;;;;;;;;23.20;59.20;;;;;;1587449;74;1127;-56
2022/10/21 08:38:04;;;;;;;;;;;23.20;59.20;;;;;;1555142;74;1932;-55
2022/10/21 08:40:06;;;;;;;;;;;23.20;59.20;;;;;;1552470;74;799;-54
2022/10/21 08:42:10;;;;;;;;;;;23.10;59.20;;;;;;1563115;74;818;-56
2022/10/21 08:44:13;;;;;;;;;;;23.20;59.00;;;;;;1567249;74;1807;-53
2022/10/21 08:46:20;;;;;;;;;;;23.20;59.20;;;;;;1560180;74;1811;-53
2022/10/21 08:48:23;;;;;;;;;;;23.20;59.20;;;;;;1572507;74;1098;-57
2022/10/21 08:50:27;;;;;;;;;;;23.20;59.00;;;;;;1572992;74;1131;-57
2022/10/21 08:52:33;;;;;;;;;;;23.20;59.20;;;;;;1574240;74;1961;-56
2022/10/21 08:54:53;;;;;;;;;;;23.20;59.20;;;;;;1575701;74;798;-57
2022/10/21 08:56:57;;;;;;;;;;;23.10;59.00;;;;;;1567163;74;1149;-56
2022/10/21 08:58:59;;;;;;;;;;;23.10;59.20;;;;;;1548167;74;1678;-53
2022/10/21 09:01:05;;;;;;;;;;;23.10;59.20;;;;;;1567908;74;771;-57
2022/10/21 09:03:12;;;;;;;;;;;23.10;59.20;;;;;;1544233;74;1819;-57
2022/10/21 09:05:32;;;;;;;;;;;23.20;59.20;;;;;;1553181;74;1538;-53
2022/10/21 09:07:39;;;;;;;;;;;23.20;59.00;;;;;;1563216;74;709;-55
2022/10/21 09:09:42;;;;;;;;;;;23.20;58.90;;;;;;1560405;74;1596;-56
2022/10/21 09:11:58;;;;;;;;;;;23.10;59.00;;;;;;1562803;74;1933;-56
2022/10/21 09:14:01;;;;;;;;;;;23.20;58.90;;;;;;1562032;74;1444;-57
2022/10/21 09:16:18;;;;;;;;;;;23.10;59.00;;;;;;1561749;74;1128;-56
2022/10/21 09:18:25;;;;;;;;;;;23.10;58.90;;;;;;1563960;74;787;-55
2022/10/21 09:20:45;;;;;;;;;;;23.20;58.90;;;;;;1565711;74;1518;-56
2022/10/21 09:23:01;;;;;;;;;;;23.10;58.90;;;;;;1549033;74;705;-55
2022/10/21 09:25:04;;;;;;;;;;;23.10;58.90;;;;;;1541446;74;805;-56
2022/10/21 09:27:07;;;;;;;;;;;23.10;59.00;;;;;;1523655;74;1099;-57
2022/10/21 09:29:16;;;;;;;;;;;23.10;58.80;;;;;;1570159;74;764;-56
2022/10/21 09:31:19;;;;;;;;;;;23.10;58.70;;;;;;1555835;74;1938;-56
2022/10/21 09:33:27;;;;;;;;;;;23.10;58.70;;;;;;1555426;74;1527;-56
2022/10/21 09:35:31;;;;;;;;;;;23.20;58.70;;;;;;1569131;74;1116;-57
2022/10/21 09:37:35;;;;;;;;;;;23.10;58.70;;;;;;1563884;75;706;-56
2022/10/21 09:39:40;;;;;;;;;;;23.10;58.70;;;;;;1558760;74;1918;-55
2022/10/21 09:41:43;;;;;;;;;;;23.10;58.70;;;;;;1557143;74;1927;-57
2022/10/21 09:43:44;;;;;;;;;;;23.10;58.70;;;;;;1566579;74;774;-54
2022/10/21 09:45:46;;;;;;;;;;;23.10;58.60;;;;;;1567015;75;1148;-57
2022/10/21 09:47:50;;;;;;;;;;;23.10;58.70;;;;;;1559634;74;1568;-57
2022/10/21 09:49:56;;;;;;;;;;;23.10;58.60;;;;;;1555228;74;1763;-56
2022/10/21 09:51:59;;;;;;;;;;;23.10;58.60;;;;;;1562457;74;1883;-56
2022/10/21 09:54:18;;;;;;;;;;;23.10;58.60;;;;;;1576766;74;787;-56
2022/10/21 09:56:24;;;;;;;;;;;23.10;58.60;;;;;;1558315;74;1190;-53
2022/10/21 09:58:26;;;;;;;;;;;23.10;58.60;;;;;;1564603;74;1801;-53
2022/10/21 10:00:47;;;;;;;;;;;23.20;58.60;;;;;;1559644;75;807;-54
2022/10/21 10:02:49;;;;;;;;;;;23.10;58.60;;;;;;1556817;74;1509;-56
2022/10/21 10:04:51;;;;;;;;;;;23.10;58.60;;;;;;1560718;74;740;-57
2022/10/21 10:06:53;;;;;;;;;;;23.10;58.60;;;;;;1550205;74;1123;-55
2022/10/21 10:08:54;;;;;;;;;;;23.10;58.60;;;;;;1571707;74;775;-53
2022/10/21 10:11:03;;;;;;;;;;;23.10;58.60;;;;;;1542238;76;1944;-57
2022/10/21 10:13:05;;;;;;;;;;;23.20;58.50;;;;;;1562715;75;750;-53
2022/10/21 10:15:11;;;;;;;;;;;23.10;58.40;;;;;;1569777;74;789;-55
2022/10/21 10:17:27;;;;;;;;;;;23.10;58.40;;;;;;1554990;74;1749;-57
2022/10/21 10:19:29;;;;;;;;;;;23.10;58.40;;;;;;1551067;74;863;-56
2022/10/21 10:21:31;;;;;;;;;;;23.10;58.50;;;;;;1569873;74;787;-57
2022/10/21 10:23:35;;;;;;;;;;;23.10;58.50;;;;;;1558004;74;751;-57
2022/10/21 10:25:37;;;;;;;;;;;23.10;58.50;;;;;;1564010;74;1849;-57
2022/10/21 10:27:52;;;;;;;;;;;23.10;58.50;;;;;;1570051;74;819;-57
2022/10/21 10:29:55;;;;;;;;;;;23.10;58.40;;;;;;1553418;74;1541;-56
2022/10/21 10:31:57;;;;;;;;;;;23.10;58.40;;;;;;1553818;74;1934;-57
2022/10/21 10:34:00;;;;;;;;;;;23.10;58.40;;;;;;1556025;74;818;-57
2022/10/21 10:36:05;;;;;;;;;;;23.10;58.40;;;;;;1568419;74;1112;-57
2022/10/21 10:38:07;;;;;;;;;;;23.10;58.40;;;;;;1560761;74;903;-55
2022/10/21 10:40:09;;;;;;;;;;;23.10;58.40;;;;;;1545076;74;788;-57
2022/10/21 10:42:13;;;;;;;;;;;23.10;58.40;;;;;;1567539;75;789;-52
2022/10/21 10:44:19;;;;;;;;;;;23.10;58.40;;;;;;1558994;74;1926;-57
2022/10/21 10:46:28;;;;;;;;;;;23.10;58.40;;;;;;1552207;74;1796;-56
2022/10/21 10:48:32;;;;;;;;;;;23.00;58.30;;;;;;1553373;75;742;-55
2022/10/21 10:50:40;;;;;;;;;;;23.10;58.40;;;;;;1561338;74;1656;-56
2022/10/21 10:52:42;;;;;;;;;;;23.10;58.40;;;;;;1566968;74;1930;-55
2022/10/21 10:54:44;;;;;;;;;;;23.10;58.40;;;;;;1565194;74;819;-57
2022/10/21 10:56:50;;;;;;;;;;;23.10;58.30;;;;;;1564429;75;1172;-57
2022/10/21 10:59:03;;;;;;;;;;;23.10;58.30;;;;;;1565619;76;1588;-56
2022/10/21 11:01:06;;;;;;;;;;;23.10;58.30;;;;;;1562697;74;1920;-57
2022/10/21 11:03:10;;;;;;;;;;;23.10;58.20;;;;;;1565102;74;1940;-57
2022/10/21 11:05:16;;;;;;;;;;;23.10;58.30;;;;;;1553830;74;790;-57
2022/10/21 11:07:32;;;;;;;;;;;23.10;58.20;;;;;;1566542;74;807;-56
2022/10/21 11:09:34;;;;;;;;;;;23.10;58.20;;;;;;1565610;75;762;-56
2022/10/21 11:11:37;;;;;;;;;;;23.10;58.30;;;;;;1561226;74;1934;-56
2022/10/21 11:13:39;;;;;;;;;;;23.10;58.20;;;;;;1559260;74;788;-56
2022/10/21 11:15:45;;;;;;;;;;;23.10;58.10;;;;;;1565274;74;1094;-56
2022/10/21 11:18:01;;;;;;;;;;;23.10;58.20;;;;;;1567115;74;2148;-56
2022/10/21 11:20:20;;;;;;;;;;;23.00;58.10;;;;;;1563125;76;814;-56
2022/10/21 11:22:36;;;;;;;;;;;23.10;58.30;;;;;;1563865;74;773;-57
2022/10/21 11:24:45;;;;;;;;;;;23.00;58.10;;;;;;1560637;74;735;-56
2022/10/21 11:26:51;;;;;;;;;;;23.10;58.30;;;;;;1557828;74;1930;-53
2022/10/21 11:29:10;;;;;;;;;;;23.10;58.20;;;;;;1561152;74;2104;-55
2022/10/21 11:31:16;;;;;;;;;;;23.00;58.10;;;;;;1557043;74;1810;-57
2022/10/21 11:33:23;;;;;;;;;;;23.00;58.10;;;;;;1566497;75;1930;-56
2022/10/21 11:35:26;;;;;;;;;;;23.10;58.30;;;;;;1559206;74;1138;-56
2022/10/21 11:37:48;;;;;;;;;;;23.00;58.20;;;;;;1551996;74;748;-56
2022/10/21 11:40:09;;;;;;;;;;;23.00;58.20;;;;;;1566613;74;1531;-56
2022/10/21 11:42:31;;;;;;;;;;;23.00;58.10;;;;;;1557623;74;716;-57
2022/10/21 11:44:47;;;;;;;;;;;23.00;58.20;;;;;;1560884;76;1821;-57
2022/10/21 11:46:54;;;;;;;;;;;23.00;58.20;;;;;;1557937;74;1954;-56
2022/10/21 11:48:58;;;;;;;;;;;23.00;58.20;;;;;;1566671;74;698;-56
2022/10/21 11:51:04;;;;;;;;;;;23.00;58.20;;;;;;1573361;74;1542;-56
2022/10/21 11:53:13;;;;;;;;;;;23.00;58.10;;;;;;1550695;74;2119;-56
2022/10/21 11:55:17;;;;;;;;;;;23.10;58.20;;;;;;1563710;74;1703;-55
2022/10/21 11:57:37;;;;;;;;;;;23.10;58.20;;;;;;1559118;74;724;-56
2022/10/21 11:59:58;;;;;;;;;;;23.00;58.10;;;;;;1550975;74;768;-56
2022/10/21 12:02:02;;;;;;;;;;;23.00;58.00;;;;;;1564967;74;729;-57
2022/10/21 12:04:05;;;;;;;;;;;23.00;58.10;;;;;;1568477;74;1166;-57
2022/10/21 12:06:11;;;;;;;;;;;23.00;58.10;;;;;;1561137;74;1140;-57
2022/10/21 12:08:19;;;;;;;;;;;23.00;58.10;;;;;;1563881;74;1944;-57
2022/10/21 12:10:34;;;;;;;;;;;23.00;58.10;;;;;;1566080;74;729;-57
2022/10/21 12:12:38;;;;;;;;;;;23.00;58.10;;;;;;1572789;74;1940;-57
2022/10/21 12:14:43;;;;;;;;;;;23.00;58.00;;;;;;1559164;74;729;-57
2022/10/21 12:16:45;;;;;;;;;;;23.00;58.00;;;;;;1560876;74;1120;-57
2022/10/21 12:18:48;;;;;;;;;;;23.00;58.00;;;;;;1576349;74;671;-57